Palm Beach, FL (33480)

9:45 AM EDT on October 30, 2014 (GMT -0400)
Palm Beach, FL | Change Station
CLOSE
Current Station
Personal Weather Station
Location: Palm Beach, FL
Elevation: 8 ft
Nearby Weather Stations

Elev 8 ft 26.71 °N, 80.04 °W | Updated 16 seconds ago

Clear
Clear
78.3 °F
Feels Like 81 °F
N
0.9
Wind Variable Wind from WSW
Gusts 4.0 mph

Today
High -- | Low -- °F
--% Chance of Precip.
Yesterday
High -- | Low -- °F
Precip. -- in
7:28 AM 6:38 PM
Waxing Crescent, 44% visible
Pressure 29.97 in
Visibility 10.0 miles
Clouds Few 3000 ft
Heat Index 81 °F
Dew Point 70 °F
Humidity 75%
Rainfall 0.00 in
Snow Depth Not available.
UV 1 out of 12
Pollen 3.90 out of 12
Air Quality Not available.
Flu Activity Not available.
METAR KPBI 301253Z 30004KT 10SM FEW030 22/21 A2997 RMK AO2 SLP147 CB DSNT NE E T02220206

More Conditions Fewer Conditions

Pressure 29.97 in
Visibility 10.0 miles
Clouds Few 3000 ft
Heat Index 81 °F
Dew Point 70 °F
Humidity 75%
Rainfall 0.00 in
Snow Depth Not available.
UV 1 out of 12
Pollen 3.90 out of 12
Air Quality Not available.
Flu Activity Not available.
METAR KPBI 301253Z 30004KT 10SM FEW030 22/21 A2997 RMK AO2 SLP147 CB DSNT NE E T02220206

More Conditions Fewer Conditions

10-Day Weather Forecast

Almanac

Astronomy

Oct. 30, 2014 Rise Set
Actual Time
Civil Twilight
Nautical Twilight
Astronomical Twilight
Moon
Length of Visible Light
Length of Day
Tomorrow will be .
, % of the Moon is Illuminated

Today's Extremes

State Highs State Lows

Community

WunderPhotos

Upload Photos

1,766,358 photos uploaded!

WunderBlogs® & News

Nearby

Air Quality

  Air Quality AQ Index Pollutant
Not available.

Snow Depth

Station Depth Elevation

Earthquake Activity

City Distance Mag. Time & Date
Minimum magnitude displayed is 2.5.

Coastal Water Temperatures

Place Temperature

Nearby Weather Stations